Cape Genesis — 3FBK8 — position and weather

sailwx.info

Track history (hours):
 
Tides and Currents Weather Stations Pressure Air Temp Water Temp Dewpoint Dewpoint Depression Visibility Wind Speed Wind Dir Waves Ship Positions

Cape Genesis

Last reported at 2018-Feb-16 16:17 UTC. Time now 2018-Feb-26 02:06 UTC.
Position N 35°36' E 014°43'.
Warning: this ship's position is 9 days out of date.

Length 292 m; draft 17 m.

Type: Cargo ship. MMSI: 373918000.

Date/timePositionNaut miles runAvg speedWind from/ knotsBaromVisibWave heightAir tempDewpointWater temp
2018-Feb-16 16:17N 35°36' E 014°43'412.3
2018-Feb-16 15:56N 35°37' E 014°38'512.1
2018-Feb-16 15:30N 35°38' E 014°32'611.8
2018-Feb-16 15:00N 35°41' E 014°25'611.7
2018-Feb-16 14:30N 35°44' E 014°19'611.6
2018-Feb-16 13:59N 35°47' E 014°13'611.8
2018-Feb-16 13:30N 35°50' E 014°07'612.1
2018-Feb-16 12:59N 35°54' E 014°00'612.3
2018-Feb-16 12:29N 35°57' E 013°54'  
2018-Feb-13 06:19N 35°59' W 005°13'414.1
2018-Feb-13 06:00N 35°59' W 005°19'714.7
2018-Feb-13 05:31N 35°57' W 005°28'1514.1
2018-Feb-13 04:27N 35°55' W 005°46'  
Track history (hours):
 
Tides and Currents Weather Stations Pressure Air Temp Water Temp Dewpoint Dewpoint Depression Visibility Wind Speed Wind Dir Waves Ship Positions

Cape Genesis

Last reported at 2018-Feb-16 16:17 UTC. Time now 2018-Feb-26 02:06 UTC.
Position N 35°36' E 014°43'.
Warning: this ship's position is 9 days out of date.

Length 292 m; draft 17 m.

Type: Cargo ship. MMSI: 373918000.

Date/timePositionNaut miles runAvg speedWind from/ knotsBaromVisibWave heightAir tempDewpointWater temp
2018-Feb-16 16:17N 35°36' E 014°43'412.3
2018-Feb-16 15:56N 35°37' E 014°38'512.1
2018-Feb-16 15:30N 35°38' E 014°32'611.8
2018-Feb-16 15:00N 35°41' E 014°25'611.7
2018-Feb-16 14:30N 35°44' E 014°19'611.6
2018-Feb-16 13:59N 35°47' E 014°13'611.8
2018-Feb-16 13:30N 35°50' E 014°07'612.1
2018-Feb-16 12:59N 35°54' E 014°00'612.3
2018-Feb-16 12:29N 35°57' E 013°54'  
2018-Feb-13 06:19N 35°59' W 005°13'414.1
2018-Feb-13 06:00N 35°59' W 005°19'714.7
2018-Feb-13 05:31N 35°57' W 005°28'1514.1
2018-Feb-13 04:27N 35°55' W 005°46'  

Dump ship's entire track history